createdAt,value
2022-09-09T00:02:19.047Z,16.26
2022-09-09T00:04:55.428Z,16.29
2022-09-09T00:07:25.142Z,16.25
2022-09-09T00:10:19.148Z,16.20
2022-09-09T00:12:58.357Z,16.17
2022-09-09T00:15:31.081Z,16.15
2022-09-09T00:18:03.059Z,16.13
2022-09-09T00:20:59.258Z,16.15
2022-09-09T00:23:33.902Z,16.07
2022-09-09T00:26:11.463Z,16.11
2022-09-09T00:28:50.596Z,16.12
2022-09-09T00:31:23.984Z,16.07
2022-09-09T00:33:53.359Z,16.05
2022-09-09T00:36:27.319Z,16.01
2022-09-09T00:39:00.699Z,16.05
2022-09-09T00:41:27.134Z,16.04
2022-09-09T00:44:04.407Z,16.00
2022-09-09T00:46:48.002Z,15.96
2022-09-09T00:49:36.991Z,15.96
2022-09-09T00:52:27.393Z,15.93
2022-09-09T00:54:59.085Z,15.93
2022-09-09T00:57:36.766Z,15.88
2022-09-09T01:00:06.089Z,15.92
2022-09-09T01:02:42.787Z,15.86
2022-09-09T01:05:18.667Z,15.86
2022-09-09T01:07:49.954Z,15.81
2022-09-09T01:10:31.582Z,15.77
2022-09-09T01:13:03.784Z,15.79
2022-09-09T01:15:33.788Z,15.77
2022-09-09T01:18:06.979Z,15.60
2022-09-09T01:20:48.936Z,15.68
2022-09-09T01:23:47.287Z,15.70
2022-09-09T01:26:42.873Z,15.69
2022-09-09T01:29:17.205Z,15.66
2022-09-09T01:32:24.231Z,15.63
2022-09-09T01:34:52.452Z,15.61
2022-09-09T01:37:19.026Z,15.58
2022-09-09T01:39:46.097Z,15.58
2022-09-09T01:42:18.375Z,15.47
2022-09-09T01:44:44.876Z,15.51
2022-09-09T01:47:11.663Z,15.54
2022-09-09T01:49:38.184Z,15.52
2022-09-09T01:52:04.822Z,15.49
2022-09-09T01:54:33.584Z,15.49
2022-09-09T01:57:34.598Z,15.49
2022-09-09T02:00:14.442Z,15.48
2022-09-09T02:03:04.656Z,15.46
2022-09-09T02:05:43.658Z,15.45
2022-09-09T02:08:22.235Z,15.46
2022-09-09T02:10:58.363Z,15.44
2022-09-09T02:13:26.230Z,15.41
2022-09-09T02:16:20.220Z,15.38
2022-09-09T02:18:56.806Z,15.33
2022-09-09T02:21:25.647Z,15.35
2022-09-09T02:23:54.132Z,15.30
2022-09-09T02:26:22.680Z,15.27
2022-09-09T02:28:51.224Z,15.32
2022-09-09T02:31:25.647Z,15.32
2022-09-09T02:33:59.927Z,15.32
2022-09-09T02:36:30.484Z,15.31
2022-09-09T02:38:57.388Z,15.24
2022-09-09T02:41:37.559Z,15.28
2022-09-09T02:44:09.693Z,15.26
2022-09-09T02:46:42.288Z,15.28
2022-09-09T02:49:36.749Z,15.25
2022-09-09T02:52:07.359Z,15.20
2022-09-09T02:54:38.817Z,15.13
2022-09-09T02:57:11.894Z,15.22
2022-09-09T02:59:42.800Z,15.21
2022-09-09T03:02:12.304Z,15.15
2022-09-09T03:04:40.172Z,15.20
2022-09-09T03:07:06.704Z,15.18
2022-09-09T03:09:35.981Z,15.13
2022-09-09T03:12:05.691Z,15.22
2022-09-09T03:14:32.253Z,15.25
2022-09-09T03:17:01.769Z,15.20
2022-09-09T03:19:28.848Z,15.11
2022-09-09T03:21:55.434Z,15.28
2022-09-09T03:24:23.944Z,15.28
2022-09-09T03:26:56.829Z,15.21
2022-09-09T03:29:23.324Z,15.29
2022-09-09T03:31:50.090Z,15.28
2022-09-09T03:34:16.616Z,15.31
2022-09-09T03:36:43.389Z,15.30
2022-09-09T03:39:09.988Z,15.38
2022-09-09T03:41:39.487Z,15.40
2022-09-09T03:44:08.506Z,15.40
2022-09-09T03:46:35.049Z,15.39
2022-09-09T03:49:04.000Z,15.41
2022-09-09T03:51:30.511Z,15.41
2022-09-09T03:53:59.124Z,15.44
2022-09-09T03:56:25.849Z,15.45
2022-09-09T03:58:55.106Z,15.41
2022-09-09T04:01:21.734Z,15.34
2022-09-09T04:03:51.481Z,15.41
2022-09-09T04:06:18.892Z,15.35
2022-09-09T04:08:46.248Z,15.33
2022-09-09T04:11:15.086Z,15.31
2022-09-09T04:13:42.569Z,15.27
2022-09-09T04:16:11.391Z,15.26
2022-09-09T04:18:40.537Z,15.25
2022-09-09T04:21:09.870Z,15.21
2022-09-09T04:23:37.114Z,15.18
2022-09-09T04:26:07.217Z,15.20
2022-09-09T04:28:38.809Z,15.17
2022-09-09T04:31:07.842Z,15.20
2022-09-09T04:33:40.174Z,15.14
2022-09-09T04:36:10.252Z,15.15
2022-09-09T04:38:39.386Z,15.25
2022-09-09T04:41:07.151Z,15.26
2022-09-09T04:43:34.242Z,15.25
2022-09-09T04:46:03.484Z,15.22
2022-09-09T04:48:30.105Z,15.13
2022-09-09T04:51:02.350Z,15.18
2022-09-09T04:53:29.117Z,15.15
2022-09-09T04:56:04.580Z,15.16
2022-09-09T04:58:31.625Z,15.18
2022-09-09T05:01:25.581Z,15.14
2022-09-09T05:03:54.468Z,15.15
2022-09-09T05:06:22.926Z,15.18
2022-09-09T05:08:50.581Z,15.16
2022-09-09T05:11:25.181Z,15.17
2022-09-09T05:13:52.179Z,15.17
2022-09-09T05:16:19.486Z,15.21
2022-09-09T05:18:49.986Z,15.23
2022-09-09T05:21:20.927Z,15.28
2022-09-09T05:23:47.844Z,15.27
2022-09-09T05:26:19.117Z,15.38
2022-09-09T05:28:46.031Z,15.42
2022-09-09T05:31:16.393Z,15.41
2022-09-09T05:33:46.950Z,15.44
2022-09-09T05:36:15.737Z,15.46
2022-09-09T05:38:42.935Z,15.58
2022-09-09T05:41:12.638Z,15.66
2022-09-09T05:43:41.646Z,15.76
2022-09-09T05:46:15.896Z,15.83
2022-09-09T05:48:47.798Z,15.98
2022-09-09T05:51:18.788Z,16.15
2022-09-09T05:53:47.338Z,16.25
2022-09-09T05:56:20.078Z,16.44
2022-09-09T05:58:50.712Z,16.58
2022-09-09T06:01:25.542Z,16.81
2022-09-09T06:03:55.503Z,18.02
2022-09-09T06:06:32.739Z,19.28
2022-09-09T06:09:00.725Z,19.02
2022-09-09T06:11:35.643Z,18.60
2022-09-09T06:14:02.656Z,18.30
2022-09-09T06:16:36.284Z,18.00
2022-09-09T06:19:05.904Z,17.76
2022-09-09T06:21:36.098Z,17.68
2022-09-09T06:24:03.014Z,17.68
2022-09-09T06:26:34.969Z,17.72
2022-09-09T06:29:07.402Z,17.81
2022-09-09T06:31:38.841Z,17.82
2022-09-09T06:34:09.117Z,17.70
2022-09-09T06:36:38.042Z,17.55
2022-09-09T06:39:07.289Z,17.47
2022-09-09T06:41:35.432Z,17.51
2022-09-09T06:44:02.152Z,17.59
2022-09-09T06:46:32.027Z,17.79
2022-09-09T06:48:59.803Z,17.92
2022-09-09T06:51:29.851Z,18.69
2022-09-09T06:54:03.940Z,19.28
2022-09-09T06:56:36.004Z,19.22
2022-09-09T06:59:09.467Z,20.86
2022-09-09T07:01:42.041Z,22.59
2022-09-09T07:04:10.056Z,24.57
2022-09-09T07:06:38.931Z,26.21
2022-09-09T07:09:13.885Z,26.35
2022-09-09T07:11:46.110Z,25.63
2022-09-09T07:14:16.194Z,24.80
2022-09-09T07:16:43.522Z,23.81
2022-09-09T07:19:13.635Z,23.88
2022-09-09T07:21:46.247Z,22.85
2022-09-09T07:24:13.838Z,22.30
2022-09-09T07:26:41.237Z,21.90
2022-09-09T07:29:08.999Z,21.37
2022-09-09T07:31:39.785Z,20.97
2022-09-09T07:34:06.562Z,20.59
2022-09-09T07:36:37.509Z,20.55
2022-09-09T07:39:10.116Z,20.42
2022-09-09T07:41:47.622Z,20.08
2022-09-09T07:44:25.864Z,19.69
2022-09-09T07:46:54.876Z,19.49
2022-09-09T07:49:28.556Z,19.36
2022-09-09T07:51:57.627Z,19.56
2022-09-09T07:54:24.681Z,19.56
2022-09-09T07:56:54.541Z,19.55
2022-09-09T07:59:21.295Z,19.54
2022-09-09T08:01:54.430Z,19.66
2022-09-09T08:04:23.305Z,19.98
2022-09-09T08:06:55.627Z,20.36
2022-09-09T08:09:30.063Z,22.04
2022-09-09T08:12:00.008Z,22.07
2022-09-09T08:14:34.035Z,21.72
2022-09-09T08:17:00.802Z,21.05
2022-09-09T08:19:30.296Z,20.63
2022-09-09T08:21:56.898Z,20.24
2022-09-09T08:24:24.131Z,20.05
2022-09-09T08:26:51.173Z,19.98
2022-09-09T08:29:18.594Z,19.93
2022-09-09T08:31:51.823Z,19.93
2022-09-09T08:34:21.534Z,19.83
2022-09-09T08:36:49.749Z,19.78
2022-09-09T08:39:20.144Z,19.77
2022-09-09T08:42:05.979Z,19.61
2022-09-09T08:44:35.423Z,19.53
2022-09-09T08:47:51.981Z,19.55
2022-09-09T08:50:34.347Z,19.63
2022-09-09T08:53:09.999Z,19.62
2022-09-09T08:55:44.436Z,19.48
2022-09-09T08:58:17.791Z,19.43
2022-09-09T09:00:53.710Z,19.39
2022-09-09T09:03:28.210Z,19.37
2022-09-09T09:06:03.158Z,19.30
2022-09-09T09:08:52.692Z,19.20
2022-09-09T09:11:19.474Z,19.20
2022-09-09T09:13:55.112Z,19.14
2022-09-09T09:16:42.361Z,19.27
2022-09-09T09:19:18.070Z,19.42
2022-09-09T09:21:49.113Z,19.45
2022-09-09T09:24:23.346Z,19.40
2022-09-09T09:26:50.544Z,19.33
2022-09-09T09:29:22.809Z,19.30
2022-09-09T09:31:55.755Z,19.15
2022-09-09T09:34:25.450Z,19.26
2022-09-09T09:36:56.572Z,19.31
2022-09-09T09:42:26.304Z,19.28
2022-09-09T09:44:55.266Z,19.24
2022-09-09T09:47:24.422Z,19.16
2022-09-09T09:50:03.408Z,19.10
2022-09-09T09:52:35.971Z,19.04
2022-09-09T09:55:08.159Z,18.94
2022-09-09T09:57:35.468Z,18.86
2022-09-09T10:00:18.461Z,18.83
2022-09-09T10:02:46.464Z,18.82
2022-09-09T10:05:36.065Z,18.79
2022-09-09T10:08:06.716Z,18.82
2022-09-09T10:11:12.092Z,18.82
2022-09-09T10:14:03.937Z,18.77
2022-09-09T10:17:04.484Z,18.74
2022-09-09T10:20:11.383Z,18.76
2022-09-09T10:22:45.961Z,18.86
2022-09-09T10:25:23.593Z,18.94
2022-09-09T10:28:06.466Z,18.93
2022-09-09T10:30:49.967Z,18.93
2022-09-09T10:33:57.361Z,18.82
2022-09-09T10:36:31.529Z,18.77
2022-09-09T10:39:33.707Z,18.75
2022-09-09T10:42:10.062Z,18.89
2022-09-09T10:44:41.349Z,19.02
2022-09-09T10:47:15.608Z,19.10
2022-09-09T10:50:02.140Z,19.26
2022-09-09T10:52:49.125Z,19.24
2022-09-09T10:55:23.835Z,19.21
2022-09-09T10:57:56.910Z,19.23
2022-09-09T11:00:44.007Z,19.43
2022-09-09T11:03:20.572Z,19.70
2022-09-09T11:05:53.597Z,19.80
2022-09-09T11:08:26.332Z,19.78
2022-09-09T11:11:08.286Z,19.73
2022-09-09T11:13:53.236Z,19.77
2022-09-09T11:16:31.542Z,19.88
2022-09-09T11:19:10.793Z,19.92
2022-09-09T11:24:44.228Z,20.12
2022-09-09T11:28:08.072Z,20.20
2022-09-09T11:30:57.388Z,20.22
2022-09-09T11:33:59.731Z,20.17
2022-09-09T11:36:44.033Z,20.00
2022-09-09T11:39:33.243Z,19.82
2022-09-09T11:42:18.390Z,19.78
2022-09-09T11:44:46.942Z,19.85
2022-09-09T11:47:33.572Z,20.03
2022-09-09T11:50:17.806Z,20.18
2022-09-09T11:52:51.156Z,20.37
2022-09-09T11:55:35.075Z,20.26
2022-09-09T11:58:03.751Z,20.15
2022-09-09T12:00:48.244Z,20.08
2022-09-09T12:03:54.707Z,20.11
2022-09-09T12:06:33.491Z,20.09
2022-09-09T12:09:33.069Z,20.16
2022-09-09T12:12:44.213Z,20.01
2022-09-09T12:15:14.523Z,19.98
2022-09-09T12:17:47.578Z,19.97
2022-09-09T12:20:26.318Z,20.16
2022-09-09T12:22:55.573Z,20.48
2022-09-09T12:25:37.282Z,20.79
2022-09-09T12:28:12.470Z,21.02
2022-09-09T12:31:10.955Z,21.09
2022-09-09T12:33:47.398Z,21.06
2022-09-09T12:36:35.835Z,21.11
2022-09-09T12:39:25.255Z,21.17
2022-09-09T12:42:01.747Z,21.22
2022-09-09T12:44:33.814Z,21.27
2022-09-09T12:47:12.025Z,21.42
2022-09-09T12:49:44.464Z,21.59
2022-09-09T12:52:29.397Z,21.65
2022-09-09T12:55:05.170Z,21.63
2022-09-09T12:57:39.857Z,21.45
2022-09-09T13:00:26.831Z,21.29
2022-09-09T13:02:56.730Z,21.29
2022-09-09T13:05:26.242Z,21.19
2022-09-09T13:08:03.385Z,21.13
2022-09-09T13:10:49.866Z,21.23
2022-09-09T13:13:28.214Z,21.33
2022-09-09T13:16:25.836Z,21.47
2022-09-09T13:18:54.601Z,21.66
2022-09-09T13:21:38.101Z,21.84
2022-09-09T13:24:33.062Z,22.14
2022-09-09T13:27:24.058Z,22.25
2022-09-09T13:30:00.057Z,22.39
2022-09-09T13:32:28.658Z,22.22
2022-09-09T13:35:01.122Z,22.08
2022-09-09T13:37:37.297Z,21.96
2022-09-09T13:40:19.672Z,21.88
2022-09-09T13:42:46.915Z,21.90
2022-09-09T13:45:27.119Z,21.78
2022-09-09T13:47:57.460Z,21.69
2022-09-09T13:50:32.240Z,21.64
2022-09-09T13:53:01.196Z,21.53
2022-09-09T13:55:32.149Z,21.36
2022-09-09T13:58:06.832Z,21.21
2022-09-09T14:00:39.553Z,21.14
2022-09-09T14:03:09.782Z,21.06
2022-09-09T14:05:39.172Z,21.02
2022-09-09T14:08:09.753Z,21.21
2022-09-09T14:10:40.363Z,21.55
2022-09-09T14:13:10.362Z,21.87
2022-09-09T14:15:59.430Z,22.07
2022-09-09T14:18:27.738Z,22.17
2022-09-09T14:20:58.165Z,22.16
2022-09-09T14:23:25.397Z,22.09
2022-09-09T14:25:52.862Z,22.08
2022-09-09T14:28:25.824Z,22.01
2022-09-09T14:31:06.591Z,21.91
2022-09-09T14:33:36.095Z,21.75
2022-09-09T14:36:05.828Z,21.55
2022-09-09T14:38:39.614Z,21.41
2022-09-09T14:41:20.840Z,21.39
2022-09-09T14:43:50.559Z,21.46
2022-09-09T14:46:20.937Z,21.61
2022-09-09T14:48:51.817Z,21.64
2022-09-09T14:51:26.942Z,21.55
2022-09-09T14:53:59.407Z,21.49
2022-09-09T14:56:31.914Z,21.33
2022-09-09T14:59:02.544Z,21.14
2022-09-09T15:01:36.663Z,20.99
2022-09-09T15:04:09.143Z,20.86
2022-09-09T15:06:43.300Z,20.75
2022-09-09T15:09:16.685Z,20.58
2022-09-09T15:11:58.319Z,20.40
2022-09-09T15:14:31.119Z,20.16
2022-09-09T15:17:13.321Z,19.90
2022-09-09T15:19:43.079Z,19.70
2022-09-09T15:22:12.164Z,19.54
2022-09-09T15:24:38.657Z,19.39
2022-09-09T15:27:07.477Z,19.26
2022-09-09T15:29:33.999Z,19.10
2022-09-09T15:32:05.047Z,19.04
2022-09-09T15:34:34.042Z,18.96
2022-09-09T15:37:01.054Z,18.91
2022-09-09T15:39:27.921Z,18.84
2022-09-09T15:41:54.963Z,18.79
2022-09-09T15:44:21.836Z,18.74
2022-09-09T15:46:57.166Z,18.70
2022-09-09T15:49:28.706Z,18.80
2022-09-09T15:52:00.014Z,18.88
2022-09-09T15:54:27.534Z,19.02
2022-09-09T15:56:57.189Z,19.22
2022-09-09T15:59:29.937Z,19.34
2022-09-09T16:01:57.338Z,19.54
2022-09-09T16:04:25.669Z,19.69
2022-09-09T16:07:02.847Z,19.80
2022-09-09T16:09:30.856Z,19.87
2022-09-09T16:12:07.374Z,19.89
2022-09-09T16:14:36.905Z,19.88
2022-09-09T16:17:07.547Z,19.87
2022-09-09T16:19:35.522Z,19.85
2022-09-09T16:22:05.712Z,19.81
2022-09-09T16:24:32.184Z,19.71
2022-09-09T16:26:58.860Z,19.64
2022-09-09T16:29:28.310Z,19.59
2022-09-09T16:32:02.731Z,19.45
2022-09-09T16:34:35.135Z,19.44
2022-09-09T16:37:03.119Z,19.34
2022-09-09T16:39:29.895Z,19.21
2022-09-09T16:41:56.566Z,19.26
2022-09-09T16:44:23.408Z,19.20
2022-09-09T16:46:58.125Z,19.15
2022-09-09T16:49:28.568Z,19.09
2022-09-09T16:52:01.073Z,19.04
2022-09-09T16:54:29.022Z,18.97
2022-09-09T16:56:57.833Z,18.91
2022-09-09T16:59:25.953Z,18.86
2022-09-09T17:01:55.270Z,18.84
2022-09-09T17:04:29.988Z,18.72
2022-09-09T17:06:58.750Z,18.85
2022-09-09T17:09:30.703Z,18.86
2022-09-09T17:12:03.408Z,18.95
2022-09-09T17:14:32.798Z,19.06
2022-09-09T17:17:19.233Z,19.06
2022-09-09T17:19:51.901Z,19.02
2022-09-09T17:22:28.049Z,19.00
2022-09-09T17:24:58.344Z,18.99
2022-09-09T17:27:35.638Z,18.98
2022-09-09T17:30:03.602Z,18.96
2022-09-09T17:32:31.391Z,18.89
2022-09-09T17:34:59.282Z,18.89
2022-09-09T17:37:30.579Z,18.88
2022-09-09T17:40:03.119Z,18.87
2022-09-09T17:42:33.442Z,18.88
2022-09-09T17:45:03.369Z,18.86
2022-09-09T17:47:32.795Z,18.84
2022-09-09T17:50:02.654Z,18.77
2022-09-09T17:52:33.894Z,18.70
2022-09-09T17:55:03.152Z,18.60
2022-09-09T17:57:31.457Z,18.52
2022-09-09T18:00:00.127Z,18.44
2022-09-09T18:02:29.033Z,18.44
2022-09-09T18:04:55.915Z,18.32
2022-09-09T18:07:24.773Z,18.34
2022-09-09T18:09:53.699Z,18.17
2022-09-09T18:12:22.511Z,18.21
2022-09-09T18:14:50.767Z,18.09
2022-09-09T18:17:20.002Z,17.96
2022-09-09T18:19:46.529Z,17.97
2022-09-09T18:22:13.188Z,17.90
2022-09-09T18:24:40.231Z,17.76
2022-09-09T18:27:06.969Z,17.69
2022-09-09T18:29:34.424Z,17.63
2022-09-09T18:32:00.948Z,17.51
2022-09-09T18:34:30.754Z,17.48
2022-09-09T18:36:57.539Z,17.41
2022-09-09T18:39:27.781Z,17.40
2022-09-09T18:42:00.696Z,17.32
2022-09-09T18:44:31.337Z,17.31
2022-09-09T18:46:58.391Z,17.26
2022-09-09T18:49:26.472Z,17.25
2022-09-09T18:51:53.427Z,17.14
2022-09-09T18:54:21.374Z,17.17
2022-09-09T18:56:48.296Z,17.28
2022-09-09T18:59:19.676Z,18.11
2022-09-09T19:01:51.082Z,17.92
2022-09-09T19:04:18.915Z,17.98
2022-09-09T19:06:49.169Z,18.07
2022-09-09T19:09:18.197Z,17.53
2022-09-09T19:11:46.115Z,17.56
2022-09-09T19:14:15.384Z,17.56
2022-09-09T19:16:45.493Z,17.52
2022-09-09T19:19:20.303Z,17.50
2022-09-09T19:21:52.613Z,17.49
2022-09-09T19:24:21.451Z,17.49
2022-09-09T19:26:52.001Z,17.48
2022-09-09T19:29:30.653Z,17.40
2022-09-09T19:32:49.223Z,17.42
2022-09-09T19:34:46.330Z,17.32
2022-09-09T19:37:16.493Z,17.35
2022-09-09T19:39:46.148Z,17.24
2022-09-09T19:42:15.154Z,17.27
2022-09-09T19:44:41.755Z,17.08
2022-09-09T19:47:10.892Z,17.13
2022-09-09T19:49:43.899Z,17.28
2022-09-09T19:52:17.866Z,16.81
2022-09-09T19:54:45.725Z,16.84
2022-09-09T19:57:12.507Z,16.82
2022-09-09T19:59:39.296Z,16.87
2022-09-09T20:02:06.061Z,16.51
2022-09-09T20:04:34.177Z,16.49
2022-09-09T20:07:00.660Z,16.38
2022-09-09T20:09:28.985Z,16.51
2022-09-09T20:11:55.503Z,16.58
2022-09-09T20:14:22.279Z,16.41
2022-09-09T20:16:51.104Z,16.47
2022-09-09T20:19:21.092Z,16.57
2022-09-09T20:21:49.637Z,16.67
2022-09-09T20:24:19.688Z,16.65
2022-09-09T20:26:48.969Z,16.46
2022-09-09T20:29:18.254Z,16.34
2022-09-09T20:31:45.509Z,16.21
2022-09-09T20:34:14.943Z,16.28
2022-09-09T20:36:42.549Z,16.32
2022-09-09T20:39:17.474Z,16.28
2022-09-09T20:41:46.754Z,16.32
2022-09-09T20:44:24.356Z,16.33
2022-09-09T20:46:57.080Z,16.28
2022-09-09T20:49:26.281Z,16.24
2022-09-09T20:51:53.780Z,16.20
2022-09-09T20:54:25.180Z,16.28
2022-09-09T20:56:53.498Z,16.22
2022-09-09T20:59:22.453Z,16.15
2022-09-09T21:01:49.583Z,16.16
2022-09-09T21:04:19.705Z,16.13
2022-09-09T21:06:50.390Z,16.15
2022-09-09T21:09:17.925Z,16.15
2022-09-09T21:11:44.520Z,16.13
2022-09-09T21:14:11.091Z,16.09
2022-09-09T21:16:40.121Z,16.13
2022-09-09T21:19:09.555Z,16.12
2022-09-09T21:21:36.343Z,16.13
2022-09-09T21:24:03.389Z,16.02
2022-09-09T21:26:30.024Z,16.00
2022-09-09T21:28:56.736Z,16.05
2022-09-09T21:31:28.352Z,16.06
2022-09-09T21:33:56.682Z,16.05
2022-09-09T21:36:23.610Z,16.04
2022-09-09T21:38:50.544Z,16.20
2022-09-09T21:41:17.570Z,16.29
2022-09-09T21:43:46.704Z,16.27
2022-09-09T21:46:18.202Z,16.30
2022-09-09T21:48:45.327Z,16.18
2022-09-09T21:51:17.117Z,16.27
2022-09-09T21:53:44.464Z,16.22
2022-09-09T21:56:13.600Z,16.19
2022-09-09T21:58:43.437Z,16.21
2022-09-09T22:01:14.862Z,16.19
2022-09-09T22:03:44.749Z,16.20
2022-09-09T22:06:16.858Z,16.17
2022-09-09T22:08:44.853Z,16.14
2022-09-09T22:11:14.653Z,16.13
2022-09-09T22:13:42.617Z,16.03
2022-09-09T22:16:12.202Z,16.05
2022-09-09T22:18:41.682Z,16.08
2022-09-09T22:21:15.767Z,16.08
2022-09-09T22:23:47.970Z,16.08
2022-09-09T22:26:15.259Z,16.07
2022-09-09T22:28:41.847Z,16.04
2022-09-09T22:31:11.356Z,16.02
2022-09-09T22:33:40.382Z,16.08
2022-09-09T22:36:07.450Z,16.05
2022-09-09T22:38:39.556Z,15.79
2022-09-09T22:41:07.948Z,15.89
2022-09-09T22:43:36.850Z,15.91
2022-09-09T22:46:04.304Z,15.88
2022-09-09T22:48:39.836Z,15.91
2022-09-09T22:51:14.093Z,15.92
2022-09-09T22:53:44.625Z,15.87
2022-09-09T22:56:18.667Z,15.84
2022-09-09T22:58:48.008Z,15.95
2022-09-09T23:01:21.008Z,15.96
2022-09-09T23:03:49.044Z,15.95
2022-09-09T23:06:21.998Z,15.93
2022-09-09T23:08:51.959Z,15.92
2022-09-09T23:11:21.647Z,15.93
2022-09-09T23:13:53.092Z,15.90
2022-09-09T23:16:35.343Z,15.89
2022-09-09T23:19:02.180Z,15.92
2022-09-09T23:21:30.469Z,15.91
2022-09-09T23:23:58.832Z,15.90
2022-09-09T23:26:26.697Z,15.95
2022-09-09T23:28:58.237Z,15.94
2022-09-09T23:31:26.462Z,15.86
2022-09-09T23:33:54.465Z,15.79
2022-09-09T23:36:24.935Z,15.80
2022-09-09T23:38:53.534Z,15.78
2022-09-09T23:41:21.301Z,15.75
2022-09-09T23:43:48.791Z,15.72
2022-09-09T23:46:20.425Z,15.83
2022-09-09T23:48:51.579Z,15.80
2022-09-09T23:51:23.689Z,15.72
2022-09-09T23:53:52.991Z,15.77
2022-09-09T23:56:30.050Z,15.78
2022-09-09T23:58:56.817Z,15.66
